sensor_id;sensor_type;location;lat;lon;timestamp;P1;P2;P0
21358;PMS7003;13506;50.852;20.632;2023-07-08T00:02:16;34.75;31.25;19.50
21358;PMS7003;13506;50.852;20.632;2023-07-08T00:04:44;35.50;30.25;20.25
21358;PMS7003;13506;50.852;20.632;2023-07-08T00:07:12;40.50;34.75;23.25
21358;PMS7003;13506;50.852;20.632;2023-07-08T00:09:46;38.00;34.50;23.25
21358;PMS7003;13506;50.852;20.632;2023-07-08T00:12:14;38.50;32.25;21.50
21358;PMS7003;13506;50.852;20.632;2023-07-08T00:14:41;37.50;32.25;21.00
21358;PMS7003;13506;50.852;20.632;2023-07-08T00:17:11;36.50;33.00;21.75
21358;PMS7003;13506;50.852;20.632;2023-07-08T00:19:39;36.00;31.50;20.50
21358;PMS7003;13506;50.852;20.632;2023-07-08T00:22:09;29.75;26.75;19.25
21358;PMS7003;13506;50.852;20.632;2023-07-08T00:24:39;34.50;28.25;19.25
21358;PMS7003;13506;50.852;20.632;2023-07-08T00:27:10;32.50;27.75;18.00
21358;PMS7003;13506;50.852;20.632;2023-07-08T00:29:39;34.50;31.75;20.75
21358;PMS7003;13506;50.852;20.632;2023-07-08T00:32:08;34.50;30.00;20.75
21358;PMS7003;13506;50.852;20.632;2023-07-08T00:34:40;39.00;32.25;21.00
21358;PMS7003;13506;50.852;20.632;2023-07-08T00:37:10;32.00;29.75;19.50
21358;PMS7003;13506;50.852;20.632;2023-07-08T00:39:38;38.00;30.00;20.00
21358;PMS7003;13506;50.852;20.632;2023-07-08T00:42:10;32.75;30.75;19.25
21358;PMS7003;13506;50.852;20.632;2023-07-08T00:44:42;30.75;29.25;20.25
21358;PMS7003;13506;50.852;20.632;2023-07-08T00:47:14;30.75;27.75;19.00
21358;PMS7003;13506;50.852;20.632;2023-07-08T00:49:43;30.00;26.50;17.50
21358;PMS7003;13506;50.852;20.632;2023-07-08T00:52:17;34.75;32.25;21.00
21358;PMS7003;13506;50.852;20.632;2023-07-08T00:54:50;31.25;30.25;20.25
21358;PMS7003;13506;50.852;20.632;2023-07-08T00:57:19;32.25;29.00;18.50
21358;PMS7003;13506;50.852;20.632;2023-07-08T00:59:52;28.50;27.75;18.50
21358;PMS7003;13506;50.852;20.632;2023-07-08T01:02:25;35.00;27.25;18.25
21358;PMS7003;13506;50.852;20.632;2023-07-08T01:04:56;30.75;28.25;20.00
21358;PMS7003;13506;50.852;20.632;2023-07-08T01:07:30;30.75;28.25;18.00
21358;PMS7003;13506;50.852;20.632;2023-07-08T01:10:02;27.25;23.75;16.25
21358;PMS7003;13506;50.852;20.632;2023-07-08T01:12:39;33.00;29.00;18.25
21358;PMS7003;13506;50.852;20.632;2023-07-08T01:15:12;27.50;24.50;17.25
21358;PMS7003;13506;50.852;20.632;2023-07-08T01:17:43;26.50;25.00;15.50
21358;PMS7003;13506;50.852;20.632;2023-07-08T01:20:12;24.75;24.00;15.75
21358;PMS7003;13506;50.852;20.632;2023-07-08T01:22:42;25.00;24.75;17.50
21358;PMS7003;13506;50.852;20.632;2023-07-08T01:25:10;25.00;23.50;17.25
21358;PMS7003;13506;50.852;20.632;2023-07-08T01:27:40;27.75;24.50;15.50
21358;PMS7003;13506;50.852;20.632;2023-07-08T01:30:12;33.00;27.50;17.00
21358;PMS7003;13506;50.852;20.632;2023-07-08T01:32:43;25.25;23.25;16.25
21358;PMS7003;13506;50.852;20.632;2023-07-08T01:35:16;27.80;23.00;14.60
21358;PMS7003;13506;50.852;20.632;2023-07-08T01:37:46;24.20;23.80;16.40
21358;PMS7003;13506;50.852;20.632;2023-07-08T01:40:23;27.00;23.00;14.80
21358;PMS7003;13506;50.852;20.632;2023-07-08T01:42:54;21.60;20.60;14.00
21358;PMS7003;13506;50.852;20.632;2023-07-08T01:45:22;24.50;24.00;16.50
21358;PMS7003;13506;50.852;20.632;2023-07-08T01:47:53;20.20;19.20;13.60
21358;PMS7003;13506;50.852;20.632;2023-07-08T01:50:25;24.40;22.40;15.00
21358;PMS7003;13506;50.852;20.632;2023-07-08T01:52:56;23.00;20.60;14.20
21358;PMS7003;13506;50.852;20.632;2023-07-08T01:55:27;24.60;22.60;13.60
21358;PMS7003;13506;50.852;20.632;2023-07-08T01:57:56;25.40;22.40;13.80
21358;PMS7003;13506;50.852;20.632;2023-07-08T02:00:24;24.60;21.40;14.40
21358;PMS7003;13506;50.852;20.632;2023-07-08T02:02:53;23.20;20.40;11.80
21358;PMS7003;13506;50.852;20.632;2023-07-08T02:05:22;24.20;21.00;13.20
21358;PMS7003;13506;50.852;20.632;2023-07-08T02:07:50;21.40;20.80;14.60
21358;PMS7003;13506;50.852;20.632;2023-07-08T02:10:20;23.00;22.00;14.80
21358;PMS7003;13506;50.852;20.632;2023-07-08T02:12:48;26.20;23.40;14.80
21358;PMS7003;13506;50.852;20.632;2023-07-08T02:15:16;25.40;24.60;16.60
21358;PMS7003;13506;50.852;20.632;2023-07-08T02:17:44;22.60;20.80;14.40
21358;PMS7003;13506;50.852;20.632;2023-07-08T02:20:12;24.80;20.80;14.60
21358;PMS7003;13506;50.852;20.632;2023-07-08T02:22:40;24.00;20.60;15.00
21358;PMS7003;13506;50.852;20.632;2023-07-08T02:25:08;25.80;21.20;15.00
21358;PMS7003;13506;50.852;20.632;2023-07-08T02:27:37;22.40;20.80;13.20
21358;PMS7003;13506;50.852;20.632;2023-07-08T02:30:06;26.60;22.00;14.60
21358;PMS7003;13506;50.852;20.632;2023-07-08T02:32:35;23.20;23.20;16.80
21358;PMS7003;13506;50.852;20.632;2023-07-08T02:35:06;24.20;23.20;14.60
21358;PMS7003;13506;50.852;20.632;2023-07-08T02:37:35;22.80;22.80;15.80
21358;PMS7003;13506;50.852;20.632;2023-07-08T02:40:03;25.00;22.80;16.00
21358;PMS7003;13506;50.852;20.632;2023-07-08T02:42:32;22.40;21.60;14.00
21358;PMS7003;13506;50.852;20.632;2023-07-08T02:45:02;22.60;20.00;14.20
21358;PMS7003;13506;50.852;20.632;2023-07-08T02:47:30;25.60;25.40;18.20
21358;PMS7003;13506;50.852;20.632;2023-07-08T02:49:58;23.80;23.80;16.20
21358;PMS7003;13506;50.852;20.632;2023-07-08T02:52:26;30.20;25.80;17.40
21358;PMS7003;13506;50.852;20.632;2023-07-08T02:54:54;24.40;23.20;15.20
21358;PMS7003;13506;50.852;20.632;2023-07-08T02:57:22;24.40;23.60;16.60
21358;PMS7003;13506;50.852;20.632;2023-07-08T02:59:50;26.60;20.00;14.00
21358;PMS7003;13506;50.852;20.632;2023-07-08T03:02:20;27.00;23.00;14.80
21358;PMS7003;13506;50.852;20.632;2023-07-08T03:04:48;20.60;20.20;13.60
21358;PMS7003;13506;50.852;20.632;2023-07-08T03:07:20;24.60;20.60;13.60
21358;PMS7003;13506;50.852;20.632;2023-07-08T03:09:48;23.00;20.75;13.50
21358;PMS7003;13506;50.852;20.632;2023-07-08T03:12:16;20.60;18.80;12.20
21358;PMS7003;13506;50.852;20.632;2023-07-08T03:14:44;25.80;22.00;15.40
21358;PMS7003;13506;50.852;20.632;2023-07-08T03:17:13;20.80;19.60;13.60
21358;PMS7003;13506;50.852;20.632;2023-07-08T03:19:45;23.00;21.60;12.00
21358;PMS7003;13506;50.852;20.632;2023-07-08T03:22:13;22.60;21.40;14.20
21358;PMS7003;13506;50.852;20.632;2023-07-08T03:24:41;30.75;24.50;16.50
21358;PMS7003;13506;50.852;20.632;2023-07-08T03:27:15;24.25;22.00;16.25
21358;PMS7003;13506;50.852;20.632;2023-07-08T03:29:44;23.60;21.60;15.00
21358;PMS7003;13506;50.852;20.632;2023-07-08T03:32:12;25.40;23.60;16.00
21358;PMS7003;13506;50.852;20.632;2023-07-08T03:34:41;26.00;23.00;15.20
21358;PMS7003;13506;50.852;20.632;2023-07-08T03:37:10;24.20;22.40;14.20
21358;PMS7003;13506;50.852;20.632;2023-07-08T03:39:38;24.80;23.20;15.60
21358;PMS7003;13506;50.852;20.632;2023-07-08T03:42:06;25.80;22.80;15.00
21358;PMS7003;13506;50.852;20.632;2023-07-08T03:44:35;24.50;21.50;14.75
21358;PMS7003;13506;50.852;20.632;2023-07-08T03:47:03;23.50;23.50;16.50
21358;PMS7003;13506;50.852;20.632;2023-07-08T03:49:31;21.00;19.25;12.75
21358;PMS7003;13506;50.852;20.632;2023-07-08T03:51:59;23.60;23.60;14.80
21358;PMS7003;13506;50.852;20.632;2023-07-08T03:54:29;26.75;24.25;14.75
21358;PMS7003;13506;50.852;20.632;2023-07-08T03:56:58;26.25;25.25;15.50
21358;PMS7003;13506;50.852;20.632;2023-07-08T03:59:27;19.00;19.00;13.00
21358;PMS7003;13506;50.852;20.632;2023-07-08T04:01:57;25.80;22.20;11.80
21358;PMS7003;13506;50.852;20.632;2023-07-08T04:04:26;24.20;20.80;14.20
21358;PMS7003;13506;50.852;20.632;2023-07-08T04:06:54;23.80;22.40;13.00
21358;PMS7003;13506;50.852;20.632;2023-07-08T04:09:22;25.40;23.40;14.60
21358;PMS7003;13506;50.852;20.632;2023-07-08T04:11:52;26.50;23.75;17.50
21358;PMS7003;13506;50.852;20.632;2023-07-08T04:14:20;28.00;24.75;15.75
21358;PMS7003;13506;50.852;20.632;2023-07-08T04:16:52;29.75;28.25;16.50
21358;PMS7003;13506;50.852;20.632;2023-07-08T04:19:23;29.00;25.75;18.50
21358;PMS7003;13506;50.852;20.632;2023-07-08T04:21:52;27.75;25.50;18.00
21358;PMS7003;13506;50.852;20.632;2023-07-08T04:24:20;30.75;26.50;18.25
21358;PMS7003;13506;50.852;20.632;2023-07-08T04:26:48;29.50;26.00;18.25
21358;PMS7003;13506;50.852;20.632;2023-07-08T04:29:18;27.50;26.25;15.50
21358;PMS7003;13506;50.852;20.632;2023-07-08T04:31:47;26.40;20.80;14.20
21358;PMS7003;13506;50.852;20.632;2023-07-08T04:34:15;26.75;23.25;14.75
21358;PMS7003;13506;50.852;20.632;2023-07-08T04:36:44;20.00;19.40;13.80
21358;PMS7003;13506;50.852;20.632;2023-07-08T04:39:12;24.25;20.00;12.75
21358;PMS7003;13506;50.852;20.632;2023-07-08T04:41:40;23.25;21.50;15.00
21358;PMS7003;13506;50.852;20.632;2023-07-08T04:44:09;49.50;41.25;27.50
21358;PMS7003;13506;50.852;20.632;2023-07-08T04:46:40;51.25;41.25;28.25
21358;PMS7003;13506;50.852;20.632;2023-07-08T04:49:12;27.50;22.00;14.00
21358;PMS7003;13506;50.852;20.632;2023-07-08T04:51:40;17.40;16.60;10.60
21358;PMS7003;13506;50.852;20.632;2023-07-08T04:54:09;23.40;20.00;12.60
21358;PMS7003;13506;50.852;20.632;2023-07-08T04:56:38;18.60;16.60;9.60
21358;PMS7003;13506;50.852;20.632;2023-07-08T04:59:07;15.00;14.80;9.80
21358;PMS7003;13506;50.852;20.632;2023-07-08T05:01:38;17.20;16.40;9.80
21358;PMS7003;13506;50.852;20.632;2023-07-08T05:04:07;19.00;16.40;8.40
21358;PMS7003;13506;50.852;20.632;2023-07-08T05:06:39;15.00;14.75;9.00
21358;PMS7003;13506;50.852;20.632;2023-07-08T05:09:07;17.20;15.00;8.40
21358;PMS7003;13506;50.852;20.632;2023-07-08T05:11:36;15.25;11.75;8.00
21358;PMS7003;13506;50.852;20.632;2023-07-08T05:14:04;13.80;11.40;7.20
21358;PMS7003;13506;50.852;20.632;2023-07-08T05:16:33;16.00;14.00;8.00
21358;PMS7003;13506;50.852;20.632;2023-07-08T05:19:03;13.00;13.00;8.20
21358;PMS7003;13506;50.852;20.632;2023-07-08T05:21:31;16.60;13.80;9.00
21358;PMS7003;13506;50.852;20.632;2023-07-08T05:24:00;15.20;14.00;9.20
21358;PMS7003;13506;50.852;20.632;2023-07-08T05:26:28;17.20;14.00;9.20
21358;PMS7003;13506;50.852;20.632;2023-07-08T05:28:57;15.80;15.20;8.60
21358;PMS7003;13506;50.852;20.632;2023-07-08T05:31:25;12.20;12.20;7.60
21358;PMS7003;13506;50.852;20.632;2023-07-08T05:33:53;12.80;12.60;7.40
21358;PMS7003;13506;50.852;20.632;2023-07-08T05:36:23;13.80;13.60;8.60
21358;PMS7003;13506;50.852;20.632;2023-07-08T05:38:51;13.20;12.40;7.00
21358;PMS7003;13506;50.852;20.632;2023-07-08T05:41:19;13.20;12.60;8.80
21358;PMS7003;13506;50.852;20.632;2023-07-08T05:43:47;15.75;14.50;10.00
21358;PMS7003;13506;50.852;20.632;2023-07-08T05:46:15;15.60;14.20;9.40
21358;PMS7003;13506;50.852;20.632;2023-07-08T05:48:43;13.20;12.60;7.60
21358;PMS7003;13506;50.852;20.632;2023-07-08T05:51:12;12.00;12.00;8.00
21358;PMS7003;13506;50.852;20.632;2023-07-08T05:53:41;12.80;11.00;7.00
21358;PMS7003;13506;50.852;20.632;2023-07-08T05:56:09;10.20;9.80;6.00
21358;PMS7003;13506;50.852;20.632;2023-07-08T05:58:37;12.25;12.00;7.50
21358;PMS7003;13506;50.852;20.632;2023-07-08T06:01:05;10.60;10.00;6.60
21358;PMS7003;13506;50.852;20.632;2023-07-08T06:03:33;14.20;13.00;7.20
21358;PMS7003;13506;50.852;20.632;2023-07-08T06:06:01;11.60;10.40;7.20
21358;PMS7003;13506;50.852;20.632;2023-07-08T06:08:31;11.60;10.60;6.20
21358;PMS7003;13506;50.852;20.632;2023-07-08T06:11:00;11.60;10.20;6.00
21358;PMS7003;13506;50.852;20.632;2023-07-08T06:13:28;12.00;11.00;6.80
21358;PMS7003;13506;50.852;20.632;2023-07-08T06:15:57;10.00;10.00;6.40
21358;PMS7003;13506;50.852;20.632;2023-07-08T06:18:25;11.20;11.00;7.00
21358;PMS7003;13506;50.852;20.632;2023-07-08T06:20:53;12.50;10.25;6.25
21358;PMS7003;13506;50.852;20.632;2023-07-08T06:23:23;12.20;12.20;7.00
21358;PMS7003;13506;50.852;20.632;2023-07-08T06:25:52;11.25;11.25;6.50
21358;PMS7003;13506;50.852;20.632;2023-07-08T06:28:21;10.20;9.20;6.40
21358;PMS7003;13506;50.852;20.632;2023-07-08T06:30:50;11.25;10.00;6.75
21358;PMS7003;13506;50.852;20.632;2023-07-08T06:33:18;11.75;11.00;6.75
21358;PMS7003;13506;50.852;20.632;2023-07-08T06:35:46;9.40;9.40;6.00
21358;PMS7003;13506;50.852;20.632;2023-07-08T06:38:13;9.40;9.40;6.00
21358;PMS7003;13506;50.852;20.632;2023-07-08T06:40:41;8.20;8.00;5.00
21358;PMS7003;13506;50.852;20.632;2023-07-08T06:43:09;9.50;9.25;5.00
21358;PMS7003;13506;50.852;20.632;2023-07-08T06:45:57;9.40;7.80;4.00
21358;PMS7003;13506;50.852;20.632;2023-07-08T06:48:24;10.00;10.00;6.25
21358;PMS7003;13506;50.852;20.632;2023-07-08T06:50:54;10.40;7.00;4.00
21358;PMS7003;13506;50.852;20.632;2023-07-08T06:53:22;8.40;8.40;4.80
21358;PMS7003;13506;50.852;20.632;2023-07-08T06:55:50;7.00;7.00;4.00
21358;PMS7003;13506;50.852;20.632;2023-07-08T06:58:19;9.00;9.00;5.00
21358;PMS7003;13506;50.852;20.632;2023-07-08T07:00:47;6.20;6.20;3.40
21358;PMS7003;13506;50.852;20.632;2023-07-08T07:03:16;7.75;7.75;4.00
21358;PMS7003;13506;50.852;20.632;2023-07-08T07:05:45;8.25;8.25;3.75
21358;PMS7003;13506;50.852;20.632;2023-07-08T07:08:12;7.50;6.75;3.25
21358;PMS7003;13506;50.852;20.632;2023-07-08T07:10:41;5.80;5.60;3.00
21358;PMS7003;13506;50.852;20.632;2023-07-08T07:13:09;5.60;5.00;2.60
21358;PMS7003;13506;50.852;20.632;2023-07-08T07:15:37;6.40;6.00;2.80
21358;PMS7003;13506;50.852;20.632;2023-07-08T07:18:05;6.50;6.00;3.00
21358;PMS7003;13506;50.852;20.632;2023-07-08T07:20:36;6.00;6.00;2.75
21358;PMS7003;13506;50.852;20.632;2023-07-08T07:23:04;6.00;6.00;3.00
21358;PMS7003;13506;50.852;20.632;2023-07-08T07:25:32;7.00;7.00;3.00
21358;PMS7003;13506;50.852;20.632;2023-07-08T07:28:01;6.25;6.25;3.25
21358;PMS7003;13506;50.852;20.632;2023-07-08T07:30:31;7.25;7.00;3.00
21358;PMS7003;13506;50.852;20.632;2023-07-08T07:32:58;7.00;7.00;4.00
21358;PMS7003;13506;50.852;20.632;2023-07-08T07:35:27;6.75;6.00;3.00
21358;PMS7003;13506;50.852;20.632;2023-07-08T07:37:56;5.00;5.00;2.75
21358;PMS7003;13506;50.852;20.632;2023-07-08T07:40:25;6.00;5.00;2.50
21358;PMS7003;13506;50.852;20.632;2023-07-08T07:42:52;5.75;5.75;3.75
21358;PMS7003;13506;50.852;20.632;2023-07-08T07:45:21;5.00;4.00;2.00
21358;PMS7003;13506;50.852;20.632;2023-07-08T07:47:48;5.00;5.00;3.00
21358;PMS7003;13506;50.852;20.632;2023-07-08T07:50:17;4.25;4.25;2.00
21358;PMS7003;13506;50.852;20.632;2023-07-08T07:52:45;4.25;4.25;2.25
21358;PMS7003;13506;50.852;20.632;2023-07-08T07:55:14;4.50;4.00;2.00
21358;PMS7003;13506;50.852;20.632;2023-07-08T07:57:42;6.00;6.00;2.50
21358;PMS7003;13506;50.852;20.632;2023-07-08T08:00:12;10.00;7.50;4.25
21358;PMS7003;13506;50.852;20.632;2023-07-08T08:02:43;7.75;7.25;3.00
21358;PMS7003;13506;50.852;20.632;2023-07-08T08:05:12;6.50;5.75;3.00
21358;PMS7003;13506;50.852;20.632;2023-07-08T08:07:40;7.00;6.75;3.75
21358;PMS7003;13506;50.852;20.632;2023-07-08T08:10:09;6.25;6.00;3.00
21358;PMS7003;13506;50.852;20.632;2023-07-08T08:12:38;5.75;5.75;3.00
21358;PMS7003;13506;50.852;20.632;2023-07-08T08:15:07;7.75;6.75;3.50
21358;PMS7003;13506;50.852;20.632;2023-07-08T08:17:35;7.25;7.00;3.75
21358;PMS7003;13506;50.852;20.632;2023-07-08T08:20:04;5.75;5.50;3.00
21358;PMS7003;13506;50.852;20.632;2023-07-08T08:22:33;6.75;5.50;2.75
21358;PMS7003;13506;50.852;20.632;2023-07-08T08:25:01;7.25;6.00;3.00
21358;PMS7003;13506;50.852;20.632;2023-07-08T08:27:29;6.75;5.75;3.75
21358;PMS7003;13506;50.852;20.632;2023-07-08T08:29:59;6.00;6.00;3.00
21358;PMS7003;13506;50.852;20.632;2023-07-08T08:32:27;5.00;5.00;2.75
21358;PMS7003;13506;50.852;20.632;2023-07-08T08:34:55;7.00;7.00;4.00
21358;PMS7003;13506;50.852;20.632;2023-07-08T08:37:23;6.00;6.00;3.00
21358;PMS7003;13506;50.852;20.632;2023-07-08T08:39:51;5.00;5.00;2.50
21358;PMS7003;13506;50.852;20.632;2023-07-08T08:42:20;5.25;5.25;2.50
21358;PMS7003;13506;50.852;20.632;2023-07-08T08:44:53;6.75;6.25;3.00
21358;PMS7003;13506;50.852;20.632;2023-07-08T08:47:29;7.00;5.25;2.00
21358;PMS7003;13506;50.852;20.632;2023-07-08T08:50:08;5.00;5.00;2.00
21358;PMS7003;13506;50.852;20.632;2023-07-08T08:52:50;6.00;6.00;4.00
21358;PMS7003;13506;50.852;20.632;2023-07-08T08:55:21;7.00;7.00;3.00
21358;PMS7003;13506;50.852;20.632;2023-07-08T08:57:52;6.25;6.00;3.25
21358;PMS7003;13506;50.852;20.632;2023-07-08T09:00:30;9.50;9.25;5.25
21358;PMS7003;13506;50.852;20.632;2023-07-08T09:03:12;8.25;7.50;4.00
21358;PMS7003;13506;50.852;20.632;2023-07-08T09:05:45;8.00;6.50;4.00
21358;PMS7003;13506;50.852;20.632;2023-07-08T09:08:15;6.00;6.00;3.00
21358;PMS7003;13506;50.852;20.632;2023-07-08T09:10:48;6.50;6.50;4.00
21358;PMS7003;13506;50.852;20.632;2023-07-08T09:13:22;6.25;6.25;3.25
21358;PMS7003;13506;50.852;20.632;2023-07-08T09:15:58;8.00;6.75;4.00
21358;PMS7003;13506;50.852;20.632;2023-07-08T09:18:33;5.75;5.75;2.00
21358;PMS7003;13506;50.852;20.632;2023-07-08T09:21:13;6.25;6.25;3.75
21358;PMS7003;13506;50.852;20.632;2023-07-08T09:23:47;8.25;6.75;3.50
21358;PMS7003;13506;50.852;20.632;2023-07-08T09:26:18;6.50;6.50;3.00
21358;PMS7003;13506;50.852;20.632;2023-07-08T09:28:50;6.25;5.75;3.00
21358;PMS7003;13506;50.852;20.632;2023-07-08T09:31:22;6.00;6.00;2.75
21358;PMS7003;13506;50.852;20.632;2023-07-08T09:33:53;8.00;8.00;4.00
21358;PMS7003;13506;50.852;20.632;2023-07-08T09:36:32;6.00;6.00;3.00
21358;PMS7003;13506;50.852;20.632;2023-07-08T09:39:00;5.00;5.00;3.00
21358;PMS7003;13506;50.852;20.632;2023-07-08T09:41:30;6.25;6.00;4.25
21358;PMS7003;13506;50.852;20.632;2023-07-08T09:44:03;7.75;7.00;3.75
21358;PMS7003;13506;50.852;20.632;2023-07-08T09:46:43;6.00;6.00;3.00
21358;PMS7003;13506;50.852;20.632;2023-07-08T09:49:20;7.00;5.75;3.00
21358;PMS7003;13506;50.852;20.632;2023-07-08T09:51:51;6.00;6.00;4.00
21358;PMS7003;13506;50.852;20.632;2023-07-08T09:54:19;8.50;7.25;4.00
21358;PMS7003;13506;50.852;20.632;2023-07-08T09:56:57;7.00;6.00;3.00
21358;PMS7003;13506;50.852;20.632;2023-07-08T09:59:31;6.50;6.50;3.50
21358;PMS7003;13506;50.852;20.632;2023-07-08T10:02:16;6.00;6.00;3.00
21358;PMS7003;13506;50.852;20.632;2023-07-08T10:04:57;7.00;5.50;3.00
21358;PMS7003;13506;50.852;20.632;2023-07-08T10:07:28;6.00;6.00;3.00
21358;PMS7003;13506;50.852;20.632;2023-07-08T10:09:58;6.50;6.00;3.00
21358;PMS7003;13506;50.852;20.632;2023-07-08T10:12:31;7.00;7.00;4.00
21358;PMS7003;13506;50.852;20.632;2023-07-08T10:15:03;5.00;5.00;2.25
21358;PMS7003;13506;50.852;20.632;2023-07-08T10:17:39;6.50;6.50;3.25
21358;PMS7003;13506;50.852;20.632;2023-07-08T10:20:12;5.75;5.75;3.25
21358;PMS7003;13506;50.852;20.632;2023-07-08T10:22:42;5.50;5.50;3.00
21358;PMS7003;13506;50.852;20.632;2023-07-08T10:25:23;6.75;6.75;3.00
21358;PMS7003;13506;50.852;20.632;2023-07-08T10:27:56;7.75;6.00;3.00
21358;PMS7003;13506;50.852;20.632;2023-07-08T10:30:31;6.75;6.75;3.00
21358;PMS7003;13506;50.852;20.632;2023-07-08T10:33:09;7.00;7.00;4.00
21358;PMS7003;13506;50.852;20.632;2023-07-08T10:36:08;6.00;6.00;4.00
21358;PMS7003;13506;50.852;20.632;2023-07-08T10:38:48;5.00;5.00;3.00
21358;PMS7003;13506;50.852;20.632;2023-07-08T10:41:33;7.00;5.50;3.00
21358;PMS7003;13506;50.852;20.632;2023-07-08T10:44:11;6.40;5.20;2.60
21358;PMS7003;13506;50.852;20.632;2023-07-08T10:46:47;7.50;7.00;4.00
21358;PMS7003;13506;50.852;20.632;2023-07-08T10:49:43;6.00;6.00;3.00
21358;PMS7003;13506;50.852;20.632;2023-07-08T10:52:29;6.75;5.25;2.00
21358;PMS7003;13506;50.852;20.632;2023-07-08T10:55:14;6.00;6.00;3.00
21358;PMS7003;13506;50.852;20.632;2023-07-08T10:58:07;6.00;6.00;3.00
21358;PMS7003;13506;50.852;20.632;2023-07-08T11:00:47;7.75;6.50;4.00
21358;PMS7003;13506;50.852;20.632;2023-07-08T11:03:37;7.75;7.25;4.00
21358;PMS7003;13506;50.852;20.632;2023-07-08T11:06:29;7.00;6.50;4.25
21358;PMS7003;13506;50.852;20.632;2023-07-08T11:09:10;6.00;5.25;2.75
21358;PMS7003;13506;50.852;20.632;2023-07-08T11:11:56;7.50;7.50;5.25
21358;PMS7003;13506;50.852;20.632;2023-07-08T11:14:29;8.25;5.50;3.00
21358;PMS7003;13506;50.852;20.632;2023-07-08T11:17:07;7.50;7.00;4.00
21358;PMS7003;13506;50.852;20.632;2023-07-08T11:19:46;9.25;7.00;3.00
21358;PMS7003;13506;50.852;20.632;2023-07-08T11:22:22;8.00;7.00;4.25
21358;PMS7003;13506;50.852;20.632;2023-07-08T11:24:52;9.00;7.00;3.25
21358;PMS7003;13506;50.852;20.632;2023-07-08T11:27:24;6.25;5.75;4.00
21358;PMS7003;13506;50.852;20.632;2023-07-08T11:29:56;8.00;7.00;4.25
21358;PMS7003;13506;50.852;20.632;2023-07-08T11:32:31;6.25;6.25;3.00
21358;PMS7003;13506;50.852;20.632;2023-07-08T11:35:02;6.75;6.75;3.75
21358;PMS7003;13506;50.852;20.632;2023-07-08T11:37:34;9.00;7.00;4.50
21358;PMS7003;13506;50.852;20.632;2023-07-08T11:40:08;6.00;6.00;3.00
21358;PMS7003;13506;50.852;20.632;2023-07-08T11:42:47;9.00;8.00;4.75
21358;PMS7003;13506;50.852;20.632;2023-07-08T11:45:23;8.00;8.00;5.00
21358;PMS7003;13506;50.852;20.632;2023-07-08T11:47:54;7.50;6.25;4.00
21358;PMS7003;13506;50.852;20.632;2023-07-08T11:50:35;7.25;7.25;4.00
21358;PMS7003;13506;50.852;20.632;2023-07-08T11:53:08;7.00;7.00;4.25
21358;PMS7003;13506;50.852;20.632;2023-07-08T11:55:43;7.50;7.50;4.00
21358;PMS7003;13506;50.852;20.632;2023-07-08T11:58:20;7.50;7.50;4.25
21358;PMS7003;13506;50.852;20.632;2023-07-08T12:00:54;7.00;7.00;5.00
21358;PMS7003;13506;50.852;20.632;2023-07-08T12:03:31;8.00;7.25;4.00
21358;PMS7003;13506;50.852;20.632;2023-07-08T12:06:01;7.50;7.25;4.50
21358;PMS7003;13506;50.852;20.632;2023-07-08T12:08:50;9.00;8.00;4.50
21358;PMS7003;13506;50.852;20.632;2023-07-08T12:11:23;6.50;6.50;4.00
21358;PMS7003;13506;50.852;20.632;2023-07-08T12:13:54;8.00;8.00;5.50
21358;PMS7003;13506;50.852;20.632;2023-07-08T12:16:25;9.25;8.00;5.00
21358;PMS7003;13506;50.852;20.632;2023-07-08T12:18:55;6.75;6.75;4.75
21358;PMS7003;13506;50.852;20.632;2023-07-08T12:21:25;6.25;6.25;4.00
21358;PMS7003;13506;50.852;20.632;2023-07-08T12:23:54;7.50;7.50;4.00
21358;PMS7003;13506;50.852;20.632;2023-07-08T12:26:31;7.00;7.00;2.25
21358;PMS7003;13506;50.852;20.632;2023-07-08T12:28:59;6.25;6.25;4.00
21358;PMS7003;13506;50.852;20.632;2023-07-08T12:31:28;8.25;8.00;4.00
21358;PMS7003;13506;50.852;20.632;2023-07-08T12:33:58;6.00;6.00;4.00
21358;PMS7003;13506;50.852;20.632;2023-07-08T12:36:27;6.00;6.00;3.00
21358;PMS7003;13506;50.852;20.632;2023-07-08T12:38:58;5.25;5.25;3.50
21358;PMS7003;13506;50.852;20.632;2023-07-08T12:41:29;7.00;6.25;4.00
21358;PMS7003;13506;50.852;20.632;2023-07-08T12:44:01;8.00;7.00;4.00
21358;PMS7003;13506;50.852;20.632;2023-07-08T12:46:34;9.00;9.00;5.25
21358;PMS7003;13506;50.852;20.632;2023-07-08T12:49:03;6.00;6.00;4.00
21358;PMS7003;13506;50.852;20.632;2023-07-08T12:51:31;7.75;7.00;3.75
21358;PMS7003;13506;50.852;20.632;2023-07-08T12:53:59;7.00;6.50;4.00
21358;PMS7003;13506;50.852;20.632;2023-07-08T12:56:27;6.00;6.00;4.00
21358;PMS7003;13506;50.852;20.632;2023-07-08T12:58:57;7.00;7.00;3.25
21358;PMS7003;13506;50.852;20.632;2023-07-08T13:01:25;7.75;7.75;4.50
21358;PMS7003;13506;50.852;20.632;2023-07-08T13:03:58;7.25;7.25;4.00
21358;PMS7003;13506;50.852;20.632;2023-07-08T13:06:29;7.00;6.50;3.75
21358;PMS7003;13506;50.852;20.632;2023-07-08T13:09:00;8.00;6.00;4.00
21358;PMS7003;13506;50.852;20.632;2023-07-08T13:11:34;7.75;7.50;5.00
21358;PMS7003;13506;50.852;20.632;2023-07-08T13:14:05;5.75;5.75;3.00
21358;PMS7003;13506;50.852;20.632;2023-07-08T13:16:34;7.50;6.75;3.25
21358;PMS7003;13506;50.852;20.632;2023-07-08T13:19:03;7.00;5.75;3.50
21358;PMS7003;13506;50.852;20.632;2023-07-08T13:21:31;7.00;7.00;5.00
21358;PMS7003;13506;50.852;20.632;2023-07-08T13:24:00;5.50;5.50;3.50
21358;PMS7003;13506;50.852;20.632;2023-07-08T13:26:29;7.25;6.00;3.00
21358;PMS7003;13506;50.852;20.632;2023-07-08T13:29:01;5.75;5.00;2.50
21358;PMS7003;13506;50.852;20.632;2023-07-08T13:31:41;7.00;7.00;3.00
21358;PMS7003;13506;50.852;20.632;2023-07-08T13:34:15;7.00;7.00;4.00
21358;PMS7003;13506;50.852;20.632;2023-07-08T13:36:45;6.50;6.00;3.50
21358;PMS7003;13506;50.852;20.632;2023-07-08T13:39:19;10.00;6.00;4.00
21358;PMS7003;13506;50.852;20.632;2023-07-08T13:41:52;7.00;7.00;4.00
21358;PMS7003;13506;50.852;20.632;2023-07-08T13:44:22;8.25;8.25;4.50
21358;PMS7003;13506;50.852;20.632;2023-07-08T13:46:51;8.50;6.50;3.50
21358;PMS7003;13506;50.852;20.632;2023-07-08T13:49:22;8.00;8.00;4.25
21358;PMS7003;13506;50.852;20.632;2023-07-08T13:52:03;7.00;7.00;4.00
21358;PMS7003;13506;50.852;20.632;2023-07-08T13:54:34;6.00;6.00;4.00
21358;PMS7003;13506;50.852;20.632;2023-07-08T13:57:08;6.50;6.50;4.00
21358;PMS7003;13506;50.852;20.632;2023-07-08T13:59:39;7.00;7.00;3.50
21358;PMS7003;13506;50.852;20.632;2023-07-08T14:02:13;6.50;6.50;3.75
21358;PMS7003;13506;50.852;20.632;2023-07-08T14:04:44;7.00;7.00;4.00
21358;PMS7003;13506;50.852;20.632;2023-07-08T14:07:13;9.00;8.00;4.00
21358;PMS7003;13506;50.852;20.632;2023-07-08T14:09:44;6.50;6.50;4.00
21358;PMS7003;13506;50.852;20.632;2023-07-08T14:12:12;7.50;7.50;5.00
21358;PMS7003;13506;50.852;20.632;2023-07-08T14:14:42;10.25;7.50;4.25
21358;PMS7003;13506;50.852;20.632;2023-07-08T14:17:10;10.75;8.00;4.75